createdAt,value
2018-04-11T00:00:22.365Z,9.99
2018-04-11T00:01:22.346Z,9.99
2018-04-11T00:02:22.335Z,9.99
2018-04-11T00:03:22.320Z,10.06
2018-04-11T00:04:22.304Z,10.03
2018-04-11T00:05:22.275Z,10.07
2018-04-11T00:07:44.622Z,10.10
2018-04-11T00:08:44.558Z,10.18
2018-04-11T00:09:44.595Z,10.21
2018-04-11T00:10:44.636Z,10.06
2018-04-11T00:11:44.572Z,10.03
2018-04-11T00:12:44.592Z,10.12
2018-04-11T00:13:45.021Z,10.21
2018-04-11T00:14:44.204Z,10.19
2018-04-11T00:15:44.422Z,10.24
2018-04-11T00:16:44.436Z,10.19
2018-04-11T00:17:44.480Z,10.30
2018-04-11T00:18:44.105Z,10.21
2018-04-11T00:19:45.023Z,10.26
2018-04-11T00:20:44.595Z,10.34
2018-04-11T00:21:45.040Z,10.32
2018-04-11T00:22:44.447Z,10.26
2018-04-11T00:23:44.344Z,10.26
2018-04-11T00:24:45.003Z,10.26
2018-04-11T00:25:45.263Z,10.22
2018-04-11T00:26:45.260Z,10.24
2018-04-11T00:27:53.816Z,10.21
2018-04-11T00:29:37.661Z,10.30
2018-04-11T00:30:37.512Z,10.19
2018-04-11T00:31:37.592Z,10.30
2018-04-11T00:32:37.247Z,10.37
2018-04-11T00:33:37.225Z,10.36
2018-04-11T00:34:37.227Z,10.42
2018-04-11T00:35:37.480Z,10.42
2018-04-11T00:36:37.471Z,10.36
2018-04-11T00:37:37.156Z,10.33
2018-04-11T00:38:37.128Z,10.37
2018-04-11T00:39:37.120Z,10.30
2018-04-11T00:40:37.092Z,10.33
2018-04-11T00:41:37.071Z,10.28
2018-04-11T00:42:37.048Z,10.36
2018-04-11T00:43:37.057Z,10.33
2018-04-11T00:44:37.035Z,10.30
2018-04-11T00:45:37.010Z,10.26
2018-04-11T00:46:46.051Z,10.25
2018-04-11T00:48:30.690Z,10.24
2018-04-11T00:49:30.523Z,10.24
2018-04-11T00:50:30.807Z,10.18
2018-04-11T00:51:31.286Z,10.24
2018-04-11T00:52:30.713Z,10.25
2018-04-11T00:53:30.731Z,10.25
2018-04-11T00:54:30.523Z,10.22
2018-04-11T00:55:30.239Z,10.28
2018-04-11T00:56:30.218Z,10.24
2018-04-11T00:57:30.216Z,10.30
2018-04-11T00:58:30.198Z,10.26
2018-04-11T00:59:30.170Z,10.22
2018-04-11T01:00:30.228Z,10.21
2018-04-11T01:01:30.120Z,10.32
2018-04-11T01:02:30.111Z,10.21
2018-04-11T01:03:30.133Z,10.18
2018-04-11T01:04:30.094Z,10.24
2018-04-11T01:05:30.088Z,10.18
2018-04-11T01:06:30.040Z,10.17
2018-04-11T01:07:30.034Z,10.07
2018-04-11T01:08:31.935Z,10.01
2018-04-11T01:09:29.984Z,10.14
2018-04-11T01:10:30.020Z,10.07
2018-04-11T01:11:29.976Z,10.15
2018-04-11T01:12:29.934Z,10.10
2018-04-11T01:13:29.922Z,10.21
2018-04-11T01:14:29.959Z,10.17
2018-04-11T01:15:29.949Z,10.24
2018-04-11T01:16:29.874Z,10.19
2018-04-11T01:17:29.852Z,10.24
2018-04-11T01:18:29.880Z,10.24
2018-04-11T01:19:29.858Z,10.24
2018-04-11T01:20:29.808Z,10.18
2018-04-11T01:21:29.798Z,10.18
2018-04-11T01:22:29.779Z,10.19
2018-04-11T01:23:29.760Z,10.24
2018-04-11T01:24:29.747Z,10.15
2018-04-11T01:25:29.730Z,10.07
2018-04-11T01:26:29.708Z,10.10
2018-04-11T01:27:29.717Z,10.15
2018-04-11T01:28:29.691Z,10.18
2018-04-11T01:29:29.779Z,10.21
2018-04-11T01:30:29.897Z,10.22
2018-04-11T01:31:29.792Z,10.18
2018-04-11T01:32:29.616Z,10.03
2018-04-11T01:33:29.596Z,9.99
2018-04-11T01:34:29.644Z,9.97
2018-04-11T01:35:29.877Z,10.03
2018-04-11T01:36:30.014Z,10.00
2018-04-11T01:37:29.548Z,10.03
2018-04-11T01:38:29.535Z,10.00
2018-04-11T01:39:29.519Z,9.96
2018-04-11T01:40:29.711Z,10.03
2018-04-11T01:41:29.673Z,10.00
2018-04-11T01:42:29.446Z,10.00
2018-04-11T01:43:29.426Z,9.89
2018-04-11T01:44:29.461Z,9.86
2018-04-11T01:45:29.417Z,9.81
